Etusivu
METAR-TAF:

METAR-TAF

Lentoasemat :

Västerås, Ruotsi

Västeråsin lentoasema

Leveyspiiri: 59-35N, Pituuspiiri: 016-38E, korkeus merenpinnasta: 6 m

Tämänhetkinen sää

Tämä raportti tehtiin 14 minuuttia sitten, kello 14.50 UTC
Tuuli 10 kn etelästä/lounaasta
Lämpötila 4°C
Kosteus 87%
Ilmanpaine 1002 hPa
Näkyvyys 10 km tai enemmän
ei pilviä alle 1500 m:ssä eikä cumulonimbus-pilviä

METAR: ESOW 241450Z 20010KT CAVOK 04/02 Q1002 R19/290195

Aika: 16:04 (15:04 UTC)

Sääennuste

Tämä raportti tehtiin 3 tuntia ja 34 minuuttia sitten, kello 11.30 UTC
Ennuste voimassa 24. päivästä klo 12 UTC - 24. päivään klo 16 UTC
Tuuli 10 kn etelästä/lounaasta
Näkyvyys 10 km tai enemmän
Hajanaisia pilviä 3000 ft:n korkeudessa

TAF: ESOW 241130Z 2412/2416 20010KT 9999 SCT030

Säähavainnot ja -ennusteet yli 4000 lentoasemalta (METAR- ja TAF-raportit).

Käytössä olevat sääasemat on merkitty karttaan keltaisilla ja punaisilla pisteillä.

Aseta hiiri pisteen päälle nähdäksesi sääaseman nimen.

Klikkaa sitten nähdäksesi säähavainnot ja -ennusteet.

Kartan vaihtaminen: klikkaa mustalla rastilla varustettuja vihreitä pisteitä, niin voit zoomata sisään; viivalla varustettua vihreää pistettä, niin voit zoomata ulos tai vihreitä nuolia, niin pääset viereisille kartoille.


METAR-TAF: